Terminal Aerodrome Forecast
Issued by NWS

Home | Current Version | Previous Version | Graphics & Text | Print | Product List | Glossary On
Versions: 1 2 3 4 5 6 7 8 9 10 11 12 13
008
FTUS43 KICT 132336
TAFRSL
TAF
KRSL 132336Z 1400/1424 34013G21KT P6SM FEW250
     FM140200 34010KT P6SM FEW250
     FM141200 32007KT P6SM BKN110
     FM141700 32011KT P6SM BKN070=

USA.gov is the U.S. government's official web portal to all federal, state and local government web resources and services.